sensor_id;sensor_type;location;lat;lon;timestamp;P1;durP1;ratioP1;P2;durP2;ratioP2
79373;SDS011;68844;53.128;17.958;2023-11-21T00:01:03;6.40;;;4.50;;
79373;SDS011;68844;53.128;17.958;2023-11-21T00:03:38;8.40;;;4.90;;
79373;SDS011;68844;53.128;17.958;2023-11-21T00:06:04;7.50;;;4.60;;
79373;SDS011;68844;53.128;17.958;2023-11-21T00:08:35;12.10;;;6.70;;
79373;SDS011;68844;53.128;17.958;2023-11-21T00:11:02;6.90;;;4.50;;
79373;SDS011;68844;53.128;17.958;2023-11-21T00:13:32;8.60;;;5.50;;
79373;SDS011;68844;53.128;17.958;2023-11-21T00:15:58;5.90;;;3.10;;
79373;SDS011;68844;53.128;17.958;2023-11-21T00:18:25;8.80;;;5.30;;
79373;SDS011;68844;53.128;17.958;2023-11-21T00:20:52;6.60;;;3.90;;
79373;SDS011;68844;53.128;17.958;2023-11-21T00:23:18;7.60;;;4.10;;
79373;SDS011;68844;53.128;17.958;2023-11-21T00:25:45;8.10;;;3.80;;
79373;SDS011;68844;53.128;17.958;2023-11-21T00:28:11;7.00;;;4.10;;
79373;SDS011;68844;53.128;17.958;2023-11-21T00:30:38;7.90;;;4.10;;
79373;SDS011;68844;53.128;17.958;2023-11-21T00:33:05;7.10;;;4.80;;
79373;SDS011;68844;53.128;17.958;2023-11-21T00:35:32;4.70;;;2.80;;
79373;SDS011;68844;53.128;17.958;2023-11-21T00:37:58;8.00;;;5.20;;
79373;SDS011;68844;53.128;17.958;2023-11-21T00:40:25;6.60;;;4.20;;
79373;SDS011;68844;53.128;17.958;2023-11-21T00:42:52;7.00;;;4.20;;
79373;SDS011;68844;53.128;17.958;2023-11-21T00:45:19;5.10;;;3.20;;
79373;SDS011;68844;53.128;17.958;2023-11-21T00:47:49;5.80;;;3.30;;
79373;SDS011;68844;53.128;17.958;2023-11-21T00:50:15;6.50;;;3.60;;
79373;SDS011;68844;53.128;17.958;2023-11-21T00:52:42;7.40;;;4.40;;
79373;SDS011;68844;53.128;17.958;2023-11-21T00:55:09;6.20;;;3.80;;
79373;SDS011;68844;53.128;17.958;2023-11-21T00:57:36;8.30;;;5.60;;
79373;SDS011;68844;53.128;17.958;2023-11-21T01:00:04;5.50;;;3.40;;
79373;SDS011;68844;53.128;17.958;2023-11-21T01:02:40;4.80;;;2.70;;
79373;SDS011;68844;53.128;17.958;2023-11-21T01:05:06;4.40;;;3.20;;
79373;SDS011;68844;53.128;17.958;2023-11-21T01:07:34;3.00;;;2.20;;
79373;SDS011;68844;53.128;17.958;2023-11-21T01:10:00;6.40;;;4.20;;
79373;SDS011;68844;53.128;17.958;2023-11-21T01:12:27;8.00;;;5.40;;
79373;SDS011;68844;53.128;17.958;2023-11-21T01:14:55;6.40;;;4.20;;
79373;SDS011;68844;53.128;17.958;2023-11-21T01:17:22;5.60;;;3.10;;
79373;SDS011;68844;53.128;17.958;2023-11-21T01:19:49;8.30;;;4.60;;
79373;SDS011;68844;53.128;17.958;2023-11-21T01:22:15;7.60;;;4.70;;
79373;SDS011;68844;53.128;17.958;2023-11-21T01:24:43;5.60;;;3.40;;
79373;SDS011;68844;53.128;17.958;2023-11-21T01:27:11;5.70;;;3.10;;
79373;SDS011;68844;53.128;17.958;2023-11-21T01:29:38;6.80;;;3.70;;
79373;SDS011;68844;53.128;17.958;2023-11-21T01:32:04;5.60;;;3.40;;
79373;SDS011;68844;53.128;17.958;2023-11-21T01:34:33;8.30;;;5.40;;
79373;SDS011;68844;53.128;17.958;2023-11-21T01:37:00;5.90;;;4.10;;
79373;SDS011;68844;53.128;17.958;2023-11-21T01:39:32;8.90;;;5.20;;
79373;SDS011;68844;53.128;17.958;2023-11-21T01:42:00;6.40;;;3.10;;
79373;SDS011;68844;53.128;17.958;2023-11-21T01:44:26;8.60;;;5.20;;
79373;SDS011;68844;53.128;17.958;2023-11-21T01:46:53;9.50;;;6.00;;
79373;SDS011;68844;53.128;17.958;2023-11-21T01:49:20;7.40;;;4.00;;
79373;SDS011;68844;53.128;17.958;2023-11-21T01:51:47;6.80;;;4.50;;
79373;SDS011;68844;53.128;17.958;2023-11-21T01:54:17;11.50;;;5.50;;
79373;SDS011;68844;53.128;17.958;2023-11-21T01:56:45;8.00;;;4.80;;
79373;SDS011;68844;53.128;17.958;2023-11-21T01:59:14;9.90;;;5.70;;
79373;SDS011;68844;53.128;17.958;2023-11-21T02:01:44;7.80;;;5.00;;
79373;SDS011;68844;53.128;17.958;2023-11-21T02:04:13;9.00;;;5.20;;
79373;SDS011;68844;53.128;17.958;2023-11-21T02:06:40;9.90;;;5.50;;
79373;SDS011;68844;53.128;17.958;2023-11-21T02:09:07;7.30;;;4.10;;
79373;SDS011;68844;53.128;17.958;2023-11-21T02:11:35;8.50;;;5.70;;
79373;SDS011;68844;53.128;17.958;2023-11-21T02:14:02;6.30;;;3.50;;
79373;SDS011;68844;53.128;17.958;2023-11-21T02:16:29;10.00;;;6.20;;
79373;SDS011;68844;53.128;17.958;2023-11-21T02:18:57;6.30;;;3.70;;
79373;SDS011;68844;53.128;17.958;2023-11-21T02:21:25;6.10;;;3.40;;
79373;SDS011;68844;53.128;17.958;2023-11-21T02:23:52;11.30;;;5.80;;
79373;SDS011;68844;53.128;17.958;2023-11-21T02:26:19;9.70;;;5.30;;
79373;SDS011;68844;53.128;17.958;2023-11-21T02:28:46;10.00;;;4.30;;
79373;SDS011;68844;53.128;17.958;2023-11-21T02:31:14;9.80;;;5.30;;
79373;SDS011;68844;53.128;17.958;2023-11-21T02:33:41;10.00;;;5.10;;
79373;SDS011;68844;53.128;17.958;2023-11-21T02:36:07;6.90;;;3.40;;
79373;SDS011;68844;53.128;17.958;2023-11-21T02:38:34;8.70;;;4.30;;
79373;SDS011;68844;53.128;17.958;2023-11-21T02:41:01;10.00;;;5.70;;
79373;SDS011;68844;53.128;17.958;2023-11-21T02:43:28;10.10;;;5.90;;
79373;SDS011;68844;53.128;17.958;2023-11-21T02:45:57;12.50;;;6.50;;
79373;SDS011;68844;53.128;17.958;2023-11-21T02:48:23;10.00;;;5.20;;
79373;SDS011;68844;53.128;17.958;2023-11-21T02:50:52;9.90;;;6.00;;
79373;SDS011;68844;53.128;17.958;2023-11-21T02:53:19;10.00;;;5.20;;
79373;SDS011;68844;53.128;17.958;2023-11-21T02:55:47;7.40;;;4.60;;
79373;SDS011;68844;53.128;17.958;2023-11-21T02:58:14;7.30;;;4.30;;
79373;SDS011;68844;53.128;17.958;2023-11-21T03:00:41;6.80;;;4.60;;
79373;SDS011;68844;53.128;17.958;2023-11-21T03:03:08;9.50;;;6.10;;
79373;SDS011;68844;53.128;17.958;2023-11-21T03:05:34;11.00;;;6.30;;
79373;SDS011;68844;53.128;17.958;2023-11-21T03:08:03;9.50;;;5.20;;
79373;SDS011;68844;53.128;17.958;2023-11-21T03:10:30;8.90;;;4.50;;
79373;SDS011;68844;53.128;17.958;2023-11-21T03:12:56;8.40;;;4.70;;
79373;SDS011;68844;53.128;17.958;2023-11-21T03:15:24;10.20;;;5.40;;
79373;SDS011;68844;53.128;17.958;2023-11-21T03:17:50;12.50;;;6.80;;
79373;SDS011;68844;53.128;17.958;2023-11-21T03:20:17;8.30;;;4.60;;
79373;SDS011;68844;53.128;17.958;2023-11-21T03:22:44;10.20;;;5.20;;
79373;SDS011;68844;53.128;17.958;2023-11-21T03:25:10;9.40;;;5.70;;
79373;SDS011;68844;53.128;17.958;2023-11-21T03:27:37;10.60;;;6.40;;
79373;SDS011;68844;53.128;17.958;2023-11-21T03:30:05;8.60;;;4.70;;
79373;SDS011;68844;53.128;17.958;2023-11-21T03:32:34;10.60;;;4.30;;
79373;SDS011;68844;53.128;17.958;2023-11-21T03:35:02;7.90;;;5.00;;
79373;SDS011;68844;53.128;17.958;2023-11-21T03:37:29;7.90;;;4.90;;
79373;SDS011;68844;53.128;17.958;2023-11-21T03:39:56;10.30;;;5.70;;
79373;SDS011;68844;53.128;17.958;2023-11-21T03:42:23;8.70;;;5.20;;
79373;SDS011;68844;53.128;17.958;2023-11-21T03:44:52;11.60;;;7.10;;
79373;SDS011;68844;53.128;17.958;2023-11-21T03:47:19;9.30;;;5.10;;
79373;SDS011;68844;53.128;17.958;2023-11-21T03:49:46;8.20;;;3.60;;
79373;SDS011;68844;53.128;17.958;2023-11-21T03:52:14;11.50;;;6.50;;
79373;SDS011;68844;53.128;17.958;2023-11-21T03:54:41;10.60;;;6.00;;
79373;SDS011;68844;53.128;17.958;2023-11-21T03:57:09;10.60;;;5.60;;
79373;SDS011;68844;53.128;17.958;2023-11-21T03:59:39;15.00;;;7.70;;
79373;SDS011;68844;53.128;17.958;2023-11-21T04:02:07;9.10;;;4.30;;
79373;SDS011;68844;53.128;17.958;2023-11-21T04:04:35;9.60;;;4.00;;
79373;SDS011;68844;53.128;17.958;2023-11-21T04:09:30;10.20;;;5.20;;
79373;SDS011;68844;53.128;17.958;2023-11-21T04:11:57;14.50;;;7.10;;
79373;SDS011;68844;53.128;17.958;2023-11-21T04:14:24;10.80;;;6.00;;
79373;SDS011;68844;53.128;17.958;2023-11-21T04:16:50;14.50;;;6.40;;
79373;SDS011;68844;53.128;17.958;2023-11-21T04:19:17;13.20;;;6.90;;
79373;SDS011;68844;53.128;17.958;2023-11-21T04:21:44;12.70;;;6.00;;
79373;SDS011;68844;53.128;17.958;2023-11-21T04:24:10;6.30;;;3.50;;
79373;SDS011;68844;53.128;17.958;2023-11-21T04:26:37;15.50;;;8.00;;
79373;SDS011;68844;53.128;17.958;2023-11-21T04:29:04;14.00;;;8.60;;
79373;SDS011;68844;53.128;17.958;2023-11-21T04:31:31;13.20;;;7.10;;
79373;SDS011;68844;53.128;17.958;2023-11-21T04:33:58;13.60;;;7.30;;
79373;SDS011;68844;53.128;17.958;2023-11-21T04:36:24;13.00;;;5.60;;
79373;SDS011;68844;53.128;17.958;2023-11-21T04:38:51;12.40;;;7.80;;
79373;SDS011;68844;53.128;17.958;2023-11-21T04:41:18;13.20;;;6.90;;
79373;SDS011;68844;53.128;17.958;2023-11-21T04:43:44;15.90;;;9.00;;
79373;SDS011;68844;53.128;17.958;2023-11-21T04:46:11;13.30;;;6.80;;
79373;SDS011;68844;53.128;17.958;2023-11-21T04:48:38;16.00;;;8.20;;
79373;SDS011;68844;53.128;17.958;2023-11-21T04:51:04;14.70;;;6.20;;
79373;SDS011;68844;53.128;17.958;2023-11-21T04:53:31;11.70;;;5.20;;
79373;SDS011;68844;53.128;17.958;2023-11-21T04:55:58;13.20;;;7.10;;
79373;SDS011;68844;53.128;17.958;2023-11-21T04:58:25;11.10;;;6.90;;
79373;SDS011;68844;53.128;17.958;2023-11-21T05:00:51;11.30;;;6.10;;
79373;SDS011;68844;53.128;17.958;2023-11-21T05:03:18;12.10;;;5.80;;
79373;SDS011;68844;53.128;17.958;2023-11-21T05:05:45;7.40;;;4.80;;
79373;SDS011;68844;53.128;17.958;2023-11-21T05:08:11;12.30;;;6.10;;
79373;SDS011;68844;53.128;17.958;2023-11-21T05:10:38;9.30;;;4.10;;
79373;SDS011;68844;53.128;17.958;2023-11-21T05:13:05;14.60;;;6.20;;
79373;SDS011;68844;53.128;17.958;2023-11-21T05:15:36;13.70;;;5.40;;
79373;SDS011;68844;53.128;17.958;2023-11-21T05:18:05;7.80;;;3.70;;
79373;SDS011;68844;53.128;17.958;2023-11-21T05:20:32;10.70;;;6.00;;
79373;SDS011;68844;53.128;17.958;2023-11-21T05:22:59;8.40;;;5.40;;
79373;SDS011;68844;53.128;17.958;2023-11-21T05:25:26;13.70;;;6.80;;
79373;SDS011;68844;53.128;17.958;2023-11-21T05:27:53;13.50;;;6.30;;
79373;SDS011;68844;53.128;17.958;2023-11-21T05:30:21;14.80;;;7.20;;
79373;SDS011;68844;53.128;17.958;2023-11-21T05:32:47;13.90;;;7.40;;
79373;SDS011;68844;53.128;17.958;2023-11-21T05:35:16;11.00;;;5.80;;
79373;SDS011;68844;53.128;17.958;2023-11-21T05:37:42;12.10;;;4.60;;
79373;SDS011;68844;53.128;17.958;2023-11-21T05:40:10;15.30;;;7.80;;
79373;SDS011;68844;53.128;17.958;2023-11-21T05:42:37;14.10;;;7.10;;
79373;SDS011;68844;53.128;17.958;2023-11-21T05:45:05;13.50;;;6.70;;
79373;SDS011;68844;53.128;17.958;2023-11-21T05:47:38;12.00;;;6.80;;
79373;SDS011;68844;53.128;17.958;2023-11-21T05:50:10;12.00;;;6.50;;
79373;SDS011;68844;53.128;17.958;2023-11-21T05:52:45;12.70;;;7.40;;
79373;SDS011;68844;53.128;17.958;2023-11-21T05:55:13;14.00;;;7.70;;
79373;SDS011;68844;53.128;17.958;2023-11-21T05:57:40;10.50;;;4.90;;
79373;SDS011;68844;53.128;17.958;2023-11-21T06:00:09;10.00;;;6.10;;
79373;SDS011;68844;53.128;17.958;2023-11-21T06:02:59;12.50;;;6.20;;
79373;SDS011;68844;53.128;17.958;2023-11-21T06:05:26;12.00;;;4.90;;
79373;SDS011;68844;53.128;17.958;2023-11-21T06:07:53;12.40;;;5.70;;
79373;SDS011;68844;53.128;17.958;2023-11-21T06:10:22;13.20;;;7.60;;
79373;SDS011;68844;53.128;17.958;2023-11-21T06:12:50;15.00;;;8.50;;
79373;SDS011;68844;53.128;17.958;2023-11-21T06:15:17;11.90;;;5.80;;
79373;SDS011;68844;53.128;17.958;2023-11-21T06:17:46;17.40;;;7.60;;
79373;SDS011;68844;53.128;17.958;2023-11-21T06:20:15;18.00;;;10.40;;
79373;SDS011;68844;53.128;17.958;2023-11-21T06:25:13;13.30;;;6.20;;
79373;SDS011;68844;53.128;17.958;2023-11-21T06:27:41;12.20;;;5.80;;
79373;SDS011;68844;53.128;17.958;2023-11-21T06:30:11;12.70;;;6.50;;
79373;SDS011;68844;53.128;17.958;2023-11-21T06:32:38;7.40;;;3.80;;
79373;SDS011;68844;53.128;17.958;2023-11-21T06:35:08;12.40;;;6.50;;
79373;SDS011;68844;53.128;17.958;2023-11-21T06:37:36;9.50;;;5.40;;
79373;SDS011;68844;53.128;17.958;2023-11-21T06:40:03;12.30;;;7.00;;
79373;SDS011;68844;53.128;17.958;2023-11-21T06:42:31;12.70;;;7.00;;
79373;SDS011;68844;53.128;17.958;2023-11-21T06:44:58;13.30;;;6.50;;
79373;SDS011;68844;53.128;17.958;2023-11-21T06:47:25;11.60;;;5.10;;
79373;SDS011;68844;53.128;17.958;2023-11-21T06:49:52;8.40;;;5.30;;
79373;SDS011;68844;53.128;17.958;2023-11-21T06:52:19;15.60;;;5.70;;
79373;SDS011;68844;53.128;17.958;2023-11-21T06:54:47;13.20;;;6.90;;
79373;SDS011;68844;53.128;17.958;2023-11-21T06:57:15;11.80;;;6.80;;
79373;SDS011;68844;53.128;17.958;2023-11-21T06:59:42;14.10;;;5.30;;
79373;SDS011;68844;53.128;17.958;2023-11-21T07:02:09;6.30;;;3.90;;
79373;SDS011;68844;53.128;17.958;2023-11-21T07:04:36;9.60;;;5.30;;
79373;SDS011;68844;53.128;17.958;2023-11-21T07:07:03;6.50;;;3.50;;
79373;SDS011;68844;53.128;17.958;2023-11-21T07:09:30;12.90;;;7.10;;
79373;SDS011;68844;53.128;17.958;2023-11-21T07:11:57;8.90;;;5.00;;
79373;SDS011;68844;53.128;17.958;2023-11-21T07:14:24;15.50;;;6.30;;
79373;SDS011;68844;53.128;17.958;2023-11-21T07:16:51;13.40;;;7.10;;
79373;SDS011;68844;53.128;17.958;2023-11-21T07:19:19;8.40;;;4.20;;
79373;SDS011;68844;53.128;17.958;2023-11-21T07:21:46;11.30;;;4.80;;
79373;SDS011;68844;53.128;17.958;2023-11-21T07:24:12;9.70;;;6.00;;
79373;SDS011;68844;53.128;17.958;2023-11-21T07:26:39;9.00;;;4.20;;
79373;SDS011;68844;53.128;17.958;2023-11-21T07:29:06;8.10;;;3.60;;
79373;SDS011;68844;53.128;17.958;2023-11-21T07:31:32;9.40;;;5.40;;
79373;SDS011;68844;53.128;17.958;2023-11-21T07:34:02;10.20;;;5.30;;
79373;SDS011;68844;53.128;17.958;2023-11-21T07:36:28;5.90;;;3.60;;
79373;SDS011;68844;53.128;17.958;2023-11-21T07:38:55;9.30;;;5.20;;
79373;SDS011;68844;53.128;17.958;2023-11-21T07:41:22;5.90;;;3.00;;
79373;SDS011;68844;53.128;17.958;2023-11-21T07:43:49;10.00;;;4.20;;
79373;SDS011;68844;53.128;17.958;2023-11-21T07:46:16;6.60;;;3.60;;
79373;SDS011;68844;53.128;17.958;2023-11-21T07:48:44;9.60;;;5.00;;
79373;SDS011;68844;53.128;17.958;2023-11-21T07:51:12;9.60;;;4.40;;
79373;SDS011;68844;53.128;17.958;2023-11-21T07:53:39;9.20;;;4.70;;
79373;SDS011;68844;53.128;17.958;2023-11-21T07:56:07;10.60;;;4.70;;
79373;SDS011;68844;53.128;17.958;2023-11-21T07:58:34;7.70;;;4.20;;
79373;SDS011;68844;53.128;17.958;2023-11-21T08:01:02;5.80;;;3.30;;
79373;SDS011;68844;53.128;17.958;2023-11-21T08:03:30;9.00;;;4.10;;
79373;SDS011;68844;53.128;17.958;2023-11-21T08:05:58;6.20;;;3.40;;
79373;SDS011;68844;53.128;17.958;2023-11-21T08:08:26;8.20;;;4.30;;
79373;SDS011;68844;53.128;17.958;2023-11-21T08:10:53;5.70;;;2.80;;
79373;SDS011;68844;53.128;17.958;2023-11-21T08:13:24;7.00;;;3.50;;
79373;SDS011;68844;53.128;17.958;2023-11-21T08:15:56;6.00;;;3.30;;
79373;SDS011;68844;53.128;17.958;2023-11-21T08:18:34;8.40;;;4.50;;
79373;SDS011;68844;53.128;17.958;2023-11-21T08:21:01;8.10;;;3.70;;
79373;SDS011;68844;53.128;17.958;2023-11-21T08:23:29;9.00;;;4.60;;
79373;SDS011;68844;53.128;17.958;2023-11-21T08:25:56;5.30;;;2.70;;
79373;SDS011;68844;53.128;17.958;2023-11-21T08:28:23;7.20;;;3.80;;
79373;SDS011;68844;53.128;17.958;2023-11-21T08:30:52;6.00;;;3.20;;
79373;SDS011;68844;53.128;17.958;2023-11-21T08:33:20;4.50;;;2.50;;
79373;SDS011;68844;53.128;17.958;2023-11-21T08:35:47;9.10;;;4.70;;
79373;SDS011;68844;53.128;17.958;2023-11-21T08:38:13;14.00;;;5.60;;
79373;SDS011;68844;53.128;17.958;2023-11-21T08:40:40;8.80;;;5.40;;
79373;SDS011;68844;53.128;17.958;2023-11-21T08:43:07;9.30;;;4.30;;
79373;SDS011;68844;53.128;17.958;2023-11-21T08:45:34;6.80;;;3.90;;
79373;SDS011;68844;53.128;17.958;2023-11-21T08:48:01;9.00;;;4.80;;
79373;SDS011;68844;53.128;17.958;2023-11-21T08:50:28;7.30;;;4.10;;
79373;SDS011;68844;53.128;17.958;2023-11-21T08:52:55;7.90;;;4.20;;
79373;SDS011;68844;53.128;17.958;2023-11-21T08:55:22;7.10;;;4.20;;
79373;SDS011;68844;53.128;17.958;2023-11-21T08:57:49;7.60;;;4.00;;
79373;SDS011;68844;53.128;17.958;2023-11-21T09:00:15;6.60;;;4.10;;
79373;SDS011;68844;53.128;17.958;2023-11-21T09:02:43;7.30;;;4.50;;
79373;SDS011;68844;53.128;17.958;2023-11-21T09:05:10;9.70;;;4.40;;
79373;SDS011;68844;53.128;17.958;2023-11-21T09:07:40;9.20;;;3.90;;
79373;SDS011;68844;53.128;17.958;2023-11-21T09:10:08;8.20;;;3.50;;
79373;SDS011;68844;53.128;17.958;2023-11-21T09:12:36;5.80;;;2.90;;
79373;SDS011;68844;53.128;17.958;2023-11-21T09:15:07;7.80;;;4.40;;
79373;SDS011;68844;53.128;17.958;2023-11-21T09:17:36;5.70;;;3.40;;
79373;SDS011;68844;53.128;17.958;2023-11-21T09:20:03;8.10;;;4.70;;
79373;SDS011;68844;53.128;17.958;2023-11-21T09:22:32;5.00;;;3.00;;
79373;SDS011;68844;53.128;17.958;2023-11-21T09:24:58;8.00;;;4.10;;
79373;SDS011;68844;53.128;17.958;2023-11-21T09:27:25;8.10;;;3.70;;
79373;SDS011;68844;53.128;17.958;2023-11-21T09:29:52;10.10;;;4.20;;
79373;SDS011;68844;53.128;17.958;2023-11-21T09:32:20;7.60;;;4.40;;
79373;SDS011;68844;53.128;17.958;2023-11-21T09:34:50;7.90;;;4.50;;
79373;SDS011;68844;53.128;17.958;2023-11-21T09:37:17;6.60;;;3.60;;
79373;SDS011;68844;53.128;17.958;2023-11-21T09:39:46;6.90;;;3.50;;
79373;SDS011;68844;53.128;17.958;2023-11-21T09:42:23;8.80;;;4.90;;
79373;SDS011;68844;53.128;17.958;2023-11-21T09:47:49;9.30;;;4.00;;
79373;SDS011;68844;53.128;17.958;2023-11-21T09:50:19;9.10;;;5.00;;
79373;SDS011;68844;53.128;17.958;2023-11-21T09:52:58;11.90;;;5.60;;
79373;SDS011;68844;53.128;17.958;2023-11-21T09:55:42;8.80;;;4.10;;
79373;SDS011;68844;53.128;17.958;2023-11-21T09:58:10;9.00;;;4.90;;
79373;SDS011;68844;53.128;17.958;2023-11-21T10:00:41;6.30;;;3.70;;
79373;SDS011;68844;53.128;17.958;2023-11-21T10:03:10;8.90;;;5.10;;
79373;SDS011;68844;53.128;17.958;2023-11-21T10:05:38;6.90;;;3.40;;
79373;SDS011;68844;53.128;17.958;2023-11-21T10:08:07;11.60;;;6.70;;
79373;SDS011;68844;53.128;17.958;2023-11-21T10:10:36;10.30;;;4.60;;
79373;SDS011;68844;53.128;17.958;2023-11-21T10:13:05;10.70;;;4.80;;
79373;SDS011;68844;53.128;17.958;2023-11-21T10:18:04;9.30;;;4.30;;
79373;SDS011;68844;53.128;17.958;2023-11-21T10:20:33;8.60;;;3.70;;
79373;SDS011;68844;53.128;17.958;2023-11-21T10:23:00;9.10;;;5.60;;
79373;SDS011;68844;53.128;17.958;2023-11-21T10:25:30;7.50;;;3.70;;
79373;SDS011;68844;53.128;17.958;2023-11-21T10:27:57;9.10;;;5.00;;
79373;SDS011;68844;53.128;17.958;2023-11-21T10:30:34;9.00;;;4.20;;
79373;SDS011;68844;53.128;17.958;2023-11-21T10:33:05;9.00;;;5.00;;
79373;SDS011;68844;53.128;17.958;2023-11-21T10:38:08;7.10;;;3.60;;
79373;SDS011;68844;53.128;17.958;2023-11-21T10:40:42;7.20;;;4.20;;
79373;SDS011;68844;53.128;17.958;2023-11-21T10:43:13;6.10;;;3.10;;
79373;SDS011;68844;53.128;17.958;2023-11-21T10:45:41;6.30;;;2.70;;
79373;SDS011;68844;53.128;17.958;2023-11-21T10:48:09;8.30;;;4.50;;
79373;SDS011;68844;53.128;17.958;2023-11-21T10:50:39;9.20;;;5.80;;
79373;SDS011;68844;53.128;17.958;2023-11-21T10:53:07;7.60;;;4.10;;
79373;SDS011;68844;53.128;17.958;2023-11-21T10:55:34;7.50;;;4.20;;
79373;SDS011;68844;53.128;17.958;2023-11-21T10:58:02;8.10;;;3.10;;
79373;SDS011;68844;53.128;17.958;2023-11-21T11:00:34;8.40;;;4.10;;
79373;SDS011;68844;53.128;17.958;2023-11-21T11:03:01;6.80;;;3.90;;
79373;SDS011;68844;53.128;17.958;2023-11-21T11:05:29;7.90;;;3.80;;
79373;SDS011;68844;53.128;17.958;2023-11-21T11:08:00;7.40;;;4.70;;
79373;SDS011;68844;53.128;17.958;2023-11-21T11:10:31;5.50;;;3.50;;
79373;SDS011;68844;53.128;17.958;2023-11-21T11:12:58;7.00;;;4.60;;
79373;SDS011;68844;53.128;17.958;2023-11-21T11:15:25;8.90;;;5.60;;
79373;SDS011;68844;53.128;17.958;2023-11-21T11:17:53;7.40;;;4.20;;
79373;SDS011;68844;53.128;17.958;2023-11-21T11:20:24;6.00;;;3.30;;
79373;SDS011;68844;53.128;17.958;2023-11-21T11:28:56;5.20;;;3.10;;
79373;SDS011;68844;53.128;17.958;2023-11-21T11:37:04;8.60;;;3.70;;
79373;SDS011;68844;53.128;17.958;2023-11-21T11:39:38;6.40;;;4.20;;
79373;SDS011;68844;53.128;17.958;2023-11-21T11:42:08;7.00;;;3.90;;
79373;SDS011;68844;53.128;17.958;2023-11-21T11:47:15;7.40;;;4.10;;
79373;SDS011;68844;53.128;17.958;2023-11-21T11:50:17;5.70;;;2.60;;
79373;SDS011;68844;53.128;17.958;2023-11-21T11:52:48;5.10;;;3.00;;
79373;SDS011;68844;53.128;17.958;2023-11-21T11:55:22;6.40;;;3.70;;
79373;SDS011;68844;53.128;17.958;2023-11-21T11:57:52;5.00;;;2.60;;
79373;SDS011;68844;53.128;17.958;2023-11-21T12:02:59;5.90;;;3.00;;
79373;SDS011;68844;53.128;17.958;2023-11-21T12:05:31;4.40;;;2.40;;
79373;SDS011;68844;53.128;17.958;2023-11-21T12:08:05;6.50;;;3.00;;
79373;SDS011;68844;53.128;17.958;2023-11-21T12:10:34;5.90;;;3.00;;
79373;SDS011;68844;53.128;17.958;2023-11-21T12:13:02;7.30;;;3.40;;
79373;SDS011;68844;53.128;17.958;2023-11-21T12:15:34;8.30;;;4.00;;
79373;SDS011;68844;53.128;17.958;2023-11-21T12:18:01;5.80;;;3.10;;
79373;SDS011;68844;53.128;17.958;2023-11-21T12:20:30;6.70;;;3.40;;
79373;SDS011;68844;53.128;17.958;2023-11-21T12:22:58;8.10;;;4.00;;
79373;SDS011;68844;53.128;17.958;2023-11-21T12:27:59;6.60;;;3.90;;
79373;SDS011;68844;53.128;17.958;2023-11-21T12:30:27;6.60;;;3.70;;
79373;SDS011;68844;53.128;17.958;2023-11-21T12:32:57;9.50;;;4.50;;
79373;SDS011;68844;53.128;17.958;2023-11-21T12:35:26;7.00;;;3.40;;
79373;SDS011;68844;53.128;17.958;2023-11-21T12:37:57;5.50;;;2.50;;
79373;SDS011;68844;53.128;17.958;2023-11-21T12:40:24;13.10;;;5.90;;
79373;SDS011;68844;53.128;17.958;2023-11-21T12:42:54;6.30;;;3.80;;
79373;SDS011;68844;53.128;17.958;2023-11-21T12:45:23;8.30;;;5.00;;
79373;SDS011;68844;53.128;17.958;2023-11-21T12:47:59;9.00;;;4.40;;
79373;SDS011;68844;53.128;17.958;2023-11-21T12:50:34;6.00;;;3.70;;
79373;SDS011;68844;53.128;17.958;2023-11-21T12:53:03;6.70;;;3.60;;
79373;SDS011;68844;53.128;17.958;2023-11-21T12:55:32;6.80;;;3.30;;
79373;SDS011;68844;53.128;17.958;2023-11-21T12:58:04;6.30;;;3.70;;
79373;SDS011;68844;53.128;17.958;2023-11-21T13:00:46;6.10;;;3.20;;
79373;SDS011;68844;53.128;17.958;2023-11-21T13:03:14;6.30;;;2.90;;
79373;SDS011;68844;53.128;17.958;2023-11-21T13:05:45;5.60;;;3.30;;
79373;SDS011;68844;53.128;17.958;2023-11-21T13:08:17;5.00;;;1.60;;
79373;SDS011;68844;53.128;17.958;2023-11-21T13:10:49;7.80;;;4.00;;
79373;SDS011;68844;53.128;17.958;2023-11-21T13:13:18;7.00;;;3.70;;
79373;SDS011;68844;53.128;17.958;2023-11-21T13:15:48;6.00;;;3.40;;
79373;SDS011;68844;53.128;17.958;2023-11-21T13:18:16;7.60;;;4.40;;
79373;SDS011;68844;53.128;17.958;2023-11-21T13:20:43;8.80;;;4.70;;
79373;SDS011;68844;53.128;17.958;2023-11-21T13:23:10;6.50;;;3.50;;
79373;SDS011;68844;53.128;17.958;2023-11-21T13:25:38;8.00;;;4.00;;
79373;SDS011;68844;53.128;17.958;2023-11-21T13:28:08;5.80;;;3.30;;
79373;SDS011;68844;53.128;17.958;2023-11-21T13:30:38;6.80;;;3.20;;
79373;SDS011;68844;53.128;17.958;2023-11-21T13:33:06;6.40;;;3.10;;
79373;SDS011;68844;53.128;17.958;2023-11-21T13:35:35;5.70;;;2.60;;
79373;SDS011;68844;53.128;17.958;2023-11-21T13:38:10;5.50;;;2.70;;
79373;SDS011;68844;53.128;17.958;2023-11-21T13:40:39;6.40;;;3.40;;
79373;SDS011;68844;53.128;17.958;2023-11-21T13:43:11;6.90;;;2.90;;
79373;SDS011;68844;53.128;17.958;2023-11-21T13:45:40;4.90;;;2.20;;
79373;SDS011;68844;53.128;17.958;2023-11-21T13:48:07;6.80;;;3.30;;
79373;SDS011;68844;53.128;17.958;2023-11-21T13:50:40;7.00;;;3.60;;
79373;SDS011;68844;53.128;17.958;2023-11-21T13:55:52;6.90;;;3.80;;
79373;SDS011;68844;53.128;17.958;2023-11-21T13:58:24;5.20;;;2.30;;
79373;SDS011;68844;53.128;17.958;2023-11-21T14:01:10;5.70;;;2.30;;
79373;SDS011;68844;53.128;17.958;2023-11-21T14:03:51;7.90;;;3.90;;
79373;SDS011;68844;53.128;17.958;2023-11-21T14:06:24;6.20;;;2.80;;
79373;SDS011;68844;53.128;17.958;2023-11-21T14:08:57;7.00;;;3.80;;
79373;SDS011;68844;53.128;17.958;2023-11-21T14:11:31;5.60;;;2.60;;
79373;SDS011;68844;53.128;17.958;2023-11-21T14:13:58;6.60;;;3.60;;
79373;SDS011;68844;53.128;17.958;2023-11-21T14:16:25;5.00;;;2.90;;
79373;SDS011;68844;53.128;17.958;2023-11-21T14:18:52;9.00;;;3.50;;
79373;SDS011;68844;53.128;17.958;2023-11-21T14:21:25;5.40;;;3.50;;
79373;SDS011;68844;53.128;17.958;2023-11-21T14:23:51;6.00;;;3.60;;
79373;SDS011;68844;53.128;17.958;2023-11-21T14:26:18;6.90;;;3.80;;
79373;SDS011;68844;53.128;17.958;2023-11-21T14:28:45;8.00;;;3.90;;
79373;SDS011;68844;53.128;17.958;2023-11-21T14:31:17;7.40;;;4.10;;
79373;SDS011;68844;53.128;17.958;2023-11-21T14:33:48;8.50;;;3.30;;
79373;SDS011;68844;53.128;17.958;2023-11-21T14:36:15;5.50;;;2.50;;
79373;SDS011;68844;53.128;17.958;2023-11-21T14:38:43;8.00;;;3.50;;
79373;SDS011;68844;53.128;17.958;2023-11-21T14:41:10;7.70;;;3.30;;
79373;SDS011;68844;53.128;17.958;2023-11-21T14:43:37;6.40;;;2.90;;
79373;SDS011;68844;53.128;17.958;2023-11-21T14:46:05;4.20;;;2.50;;
79373;SDS011;68844;53.128;17.958;2023-11-21T14:48:36;6.50;;;3.30;;
79373;SDS011;68844;53.128;17.958;2023-11-21T14:51:09;5.60;;;3.00;;
79373;SDS011;68844;53.128;17.958;2023-11-21T14:53:57;8.30;;;3.90;;
79373;SDS011;68844;53.128;17.958;2023-11-21T14:56:34;5.90;;;3.40;;
79373;SDS011;68844;53.128;17.958;2023-11-21T14:59:03;6.60;;;3.20;;
79373;SDS011;68844;53.128;17.958;2023-11-21T15:01:38;4.00;;;2.30;;
79373;SDS011;68844;53.128;17.958;2023-11-21T15:04:19;5.40;;;2.40;;
79373;SDS011;68844;53.128;17.958;2023-11-21T15:07:05;6.20;;;3.20;;
79373;SDS011;68844;53.128;17.958;2023-11-21T15:09:32;5.50;;;2.60;;
79373;SDS011;68844;53.128;17.958;2023-11-21T15:12:00;8.40;;;3.40;;
79373;SDS011;68844;53.128;17.958;2023-11-21T15:14:47;7.30;;;3.00;;